Time;durP1;ratioP1;P1;durP2;ratioP2;P2;SDS_P1;SDS_P2;PMS_P1;PMS_P2;Temp;Humidity;BMP_temperature;BMP_pressure;BME280_temperature;BME280_humidity;BME280_pressure;Samples;Min_cycle;Max_cycle;Signal;HPM_P1;HPM_P2
2022/07/07 00:39:19;;;;;;;1.25;0.30;;;15.20;99.90;;;;;;5055267;23;20047;-77
2022/07/07 00:41:45;;;;;;;0.73;0.50;;;15.10;99.90;;;;;;4968983;28;20020;-76
2022/07/07 00:44:12;;;;;;;0.85;0.20;;;15.10;99.90;;;;;;4954442;28;20015;-76
2022/07/07 00:46:46;;;;;;;0.30;0.30;;;15.10;99.90;;;;;;4969302;28;20484;-76
2022/07/07 00:49:13;;;;;;;0.20;0.20;;;15.00;99.90;;;;;;4954242;28;20050;-76
2022/07/07 00:51:40;;;;;;;0.65;0.50;;;14.90;99.90;;;;;;4953789;28;20034;-77
2022/07/07 00:54:07;;;;;;;0.20;0.20;;;14.90;99.90;;;;;;4953796;28;20019;-77
2022/07/07 00:56:33;;;;;;;0.30;0.30;;;14.80;99.90;;;;;;4953962;28;20055;-76
2022/07/07 00:59:02;;;;;;;0.20;0.20;;;14.90;99.90;;;;;;4954375;28;20129;-77
2022/07/07 01:01:29;;;;;;;0.57;0.30;;;15.00;99.90;;;;;;4954045;28;20027;-76
2022/07/07 01:03:55;;;;;;;0.57;0.28;;;15.00;99.90;;;;;;4954535;28;20027;-76
2022/07/07 01:06:22;;;;;;;0.68;0.40;;;15.10;99.90;;;;;;4954250;28;20050;-76
2022/07/07 01:08:48;;;;;;;0.50;0.40;;;15.20;99.90;;;;;;4950328;28;20023;-76
2022/07/07 01:11:14;;;;;;;0.28;0.28;;;15.30;99.90;;;;;;4954145;28;20026;-76
2022/07/07 01:13:40;;;;;;;0.40;0.35;;;15.30;99.90;;;;;;4953990;28;20155;-76
2022/07/07 01:16:05;;;;;;;0.68;0.57;;;15.40;99.90;;;;;;4954176;28;20519;-76
2022/07/07 01:18:31;;;;;;;0.47;0.30;;;15.40;99.90;;;;;;4953771;28;20031;-76
2022/07/07 01:21:00;;;;;;;1.40;0.47;;;15.60;99.90;;;;;;4953502;28;20015;-75
2022/07/07 01:23:26;;;;;;;1.50;0.30;;;15.60;99.90;;;;;;4953679;28;20508;-76
2022/07/07 01:25:51;;;;;;;0.22;0.22;;;15.60;99.90;;;;;;4953982;28;20088;-76
2022/07/07 01:28:17;;;;;;;0.47;0.35;;;15.70;99.90;;;;;;4953773;28;20062;-77
2022/07/07 01:30:43;;;;;;;1.15;0.40;;;15.80;99.90;;;;;;4953830;28;20451;-76
2022/07/07 01:33:08;;;;;;;0.38;0.30;;;15.80;99.90;;;;;;4953707;28;20023;-76
2022/07/07 01:35:34;;;;;;;0.20;0.20;;;15.70;99.90;;;;;;4953694;28;20023;-76
2022/07/07 02:37:34;;;;;;;0.80;0.40;;;16.70;99.90;;;;;;5986155;23;20020;-74
2022/07/07 02:40:00;;;;;;;1.75;0.68;;;16.70;99.90;;;;;;4968034;28;20023;-74
2022/07/07 02:42:25;;;;;;;0.50;0.50;;;16.80;99.90;;;;;;4971498;28;20034;-75
2022/07/07 02:44:51;;;;;;;1.48;0.60;;;16.80;99.90;;;;;;4972145;28;20015;-75
2022/07/07 02:47:17;;;;;;;0.30;0.30;;;16.80;99.90;;;;;;4971682;28;20027;-74
2022/07/07 02:49:42;;;;;;;0.32;0.30;;;16.90;99.90;;;;;;4971491;28;20047;-75
2022/07/07 02:52:08;;;;;;;0.77;0.60;;;16.90;99.90;;;;;;4972059;28;20019;-74
2022/07/07 02:54:34;;;;;;;0.60;0.60;;;16.90;99.90;;;;;;4970827;28;20034;-74
2022/07/07 02:57:00;;;;;;;0.40;0.40;;;16.90;99.90;;;;;;4971444;28;20110;-75
2022/07/07 02:59:25;;;;;;;0.65;0.50;;;16.90;99.90;;;;;;4971632;28;20047;-74
2022/07/07 03:01:51;;;;;;;0.50;0.45;;;16.80;99.90;;;;;;4971320;28;20571;-74
2022/07/07 03:04:17;;;;;;;1.95;0.70;;;16.70;99.90;;;;;;4970911;28;20081;-74
2022/07/07 03:06:43;;;;;;;1.10;0.50;;;16.70;99.90;;;;;;4971557;28;20471;-74
2022/07/07 03:09:08;;;;;;;0.82;0.50;;;16.60;99.90;;;;;;4970508;28;20436;-73
2022/07/07 03:11:34;;;;;;;1.92;0.77;;;16.50;99.90;;;;;;4971548;28;20518;-74
2022/07/07 03:14:00;;;;;;;1.45;0.65;;;16.40;99.90;;;;;;4971087;28;20022;-74
2022/07/07 03:16:26;;;;;;;1.95;0.55;;;16.20;99.90;;;;;;4971299;28;20027;-74
2022/07/07 03:18:51;;;;;;;0.68;0.63;;;16.20;99.90;;;;;;4971142;28;20064;-74
2022/07/07 03:21:17;;;;;;;5.80;1.08;;;16.10;99.90;;;;;;4971650;28;20026;-74
2022/07/07 03:23:43;;;;;;;1.38;0.60;;;16.00;99.90;;;;;;4970964;28;20033;-74
2022/07/07 03:26:09;;;;;;;0.55;0.55;;;15.90;99.90;;;;;;4971241;28;20019;-74
2022/07/07 03:28:34;;;;;;;0.55;0.52;;;15.80;99.90;;;;;;4971391;28;20472;-74
2022/07/07 03:31:00;;;;;;;1.80;0.80;;;15.80;99.90;;;;;;4971635;28;20018;-74
2022/07/07 03:33:26;;;;;;;1.40;0.50;;;15.70;99.90;;;;;;4971535;28;20547;-74
2022/07/07 03:35:51;;;;;;;1.02;0.70;;;15.60;99.90;;;;;;4971357;28;20467;-74
2022/07/07 04:37:51;;;;;;;1.10;0.90;;;16.30;99.90;;;;;;5878241;23;21082;-76
2022/07/07 04:40:17;;;;;;;1.25;0.90;;;16.50;99.90;;;;;;4974384;28;20066;-77
2022/07/07 04:42:42;;;;;;;2.30;1.00;;;16.60;99.90;;;;;;4973828;28;20054;-75
2022/07/07 04:45:09;;;;;;;2.40;1.00;;;16.70;99.90;;;;;;4973464;28;20480;-76
2022/07/07 04:47:40;;;;;;;0.80;0.80;;;16.80;99.90;;;;;;4973645;28;20085;-76
2022/07/07 04:50:09;;;;;;;1.73;0.80;;;16.90;99.90;;;;;;4973620;28;20586;-76
2022/07/07 04:52:36;;;;;;;0.70;0.70;;;17.00;99.90;;;;;;4973713;28;20424;-76
2022/07/07 04:55:02;;;;;;;2.00;0.90;;;17.00;99.90;;;;;;4973614;28;20254;-76
2022/07/07 04:57:28;;;;;;;0.80;0.80;;;17.10;99.90;;;;;;4973874;28;20031;-77
2022/07/07 04:59:54;;;;;;;1.00;0.90;;;17.10;99.90;;;;;;4973298;28;20015;-76
2022/07/07 05:02:20;;;;;;;4.07;0.80;;;17.20;99.90;;;;;;4973359;28;20038;-76
2022/07/07 05:04:45;;;;;;;2.80;0.95;;;17.20;99.90;;;;;;4973597;28;20025;-76
2022/07/07 05:07:11;;;;;;;1.27;0.85;;;17.20;99.90;;;;;;4972970;28;20031;-77
2022/07/07 05:09:37;;;;;;;0.75;0.70;;;17.30;99.90;;;;;;4972666;28;20050;-77
2022/07/07 05:12:04;;;;;;;2.30;1.00;;;17.30;99.90;;;;;;4973673;28;20034;-76
2022/07/07 05:14:30;;;;;;;1.33;0.80;;;17.30;99.90;;;;;;4973458;28;20019;-76
2022/07/07 05:16:55;;;;;;;1.40;0.98;;;17.30;99.90;;;;;;4972905;28;20030;-77
2022/07/07 05:19:22;;;;;;;1.13;0.90;;;17.30;99.90;;;;;;4973472;28;20030;-76
2022/07/07 05:21:49;;;;;;;1.08;0.65;;;17.40;99.90;;;;;;4973003;28;20030;-77
2022/07/07 05:24:14;;;;;;;0.80;0.60;;;17.40;99.90;;;;;;4972769;28;20022;-76
2022/07/07 05:26:40;;;;;;;1.60;0.90;;;17.40;99.90;;;;;;4973398;28;20023;-76
2022/07/07 05:29:06;;;;;;;1.17;0.60;;;17.40;99.90;;;;;;4972870;28;20023;-76
2022/07/07 05:31:32;;;;;;;1.75;0.90;;;17.40;99.90;;;;;;4972852;28;20022;-77
2022/07/07 05:33:58;;;;;;;0.82;0.73;;;17.50;99.90;;;;;;4973346;28;20019;-76
2022/07/07 05:36:24;;;;;;;1.55;0.80;;;17.50;99.90;;;;;;4972830;28;20025;-77
2022/07/07 06:38:23;;;;;;;1.65;0.60;;;18.50;99.90;;;;;;5684720;23;20488;-74
2022/07/07 06:40:48;;;;;;;1.30;0.68;;;18.60;99.90;;;;;;4955479;28;20021;-75
2022/07/07 06:43:14;;;;;;;0.93;0.52;;;18.70;99.90;;;;;;4966396;28;20026;-74
2022/07/07 06:45:40;;;;;;;0.73;0.50;;;18.70;99.90;;;;;;4971334;28;20089;-74
2022/07/07 06:48:06;;;;;;;1.38;0.57;;;18.90;99.90;;;;;;4971241;28;20042;-74
2022/07/07 06:50:32;;;;;;;0.60;0.60;;;19.00;99.90;;;;;;4971252;28;20396;-75
2022/07/07 06:52:58;;;;;;;0.55;0.28;;;19.10;99.90;;;;;;4971848;28;20019;-75
2022/07/07 06:55:24;;;;;;;0.40;0.40;;;19.30;99.90;;;;;;4971139;28;20023;-74
2022/07/07 06:57:49;;;;;;;1.20;0.65;;;19.30;99.90;;;;;;4963324;28;20104;-75
2022/07/07 07:00:15;;;;;;;1.75;0.40;;;19.40;99.90;;;;;;4971704;28;20027;-75
2022/07/07 07:02:43;;;;;;;0.93;0.50;;;19.40;99.90;;;;;;4969888;28;20484;-76
2022/07/07 07:05:09;;;;;;;0.70;0.40;;;19.40;99.90;;;;;;4971597;28;20019;-74
2022/07/07 07:07:34;;;;;;;0.40;0.30;;;19.40;99.90;;;;;;4971476;28;20023;-74
2022/07/07 07:10:00;;;;;;;0.90;0.50;;;19.30;99.90;;;;;;4971024;28;20171;-74
2022/07/07 07:12:26;;;;;;;0.73;0.40;;;19.20;99.90;;;;;;4971240;28;20101;-74
2022/07/07 07:14:52;;;;;;;0.40;0.30;;;19.10;99.90;;;;;;4971266;28;20102;-74
2022/07/07 07:17:18;;;;;;;1.90;0.40;;;19.10;99.90;;;;;;4970985;28;20039;-74
2022/07/07 07:19:43;;;;;;;0.55;0.50;;;19.10;99.90;;;;;;4971272;28;20030;-74
2022/07/07 07:22:09;;;;;;;0.73;0.45;;;19.10;99.90;;;;;;4971610;28;20018;-74
2022/07/07 07:24:35;;;;;;;0.47;0.45;;;19.00;99.90;;;;;;4971029;28;20019;-73
2022/07/07 07:27:01;;;;;;;1.52;0.63;;;19.00;99.90;;;;;;4970844;28;20046;-74
2022/07/07 07:29:26;;;;;;;2.90;0.80;;;18.90;99.90;;;;;;4971455;28;20067;-74
2022/07/07 07:31:52;;;;;;;1.60;0.55;;;18.90;99.90;;;;;;4970922;28;20102;-74
2022/07/07 07:34:18;;;;;;;0.57;0.45;;;18.80;99.90;;;;;;4970888;28;20093;-74
2022/07/07 07:36:44;;;;;;;0.63;0.40;;;18.90;99.90;;;;;;4971340;28;20471;-74
2022/07/07 07:39:11;;;;;;;0.30;0.30;;;18.90;99.90;;;;;;4969594;28;20492;-75
2022/07/07 07:41:37;;;;;;;0.93;0.52;;;18.90;99.90;;;;;;4971928;28;20098;-74
2022/07/07 07:44:03;;;;;;;0.60;0.50;;;19.00;99.90;;;;;;4974082;28;20443;-75
2022/07/07 07:46:29;;;;;;;2.95;0.70;;;19.00;99.90;;;;;;4973645;28;20437;-74
2022/07/07 07:48:55;;;;;;;0.30;0.30;;;19.00;99.90;;;;;;4973095;28;20023;-74
2022/07/07 07:51:21;;;;;;;1.02;0.50;;;19.10;99.90;;;;;;4974371;28;20023;-74
2022/07/07 07:53:46;;;;;;;1.13;0.40;;;19.20;99.90;;;;;;4974744;28;20027;-75
2022/07/07 07:56:12;;;;;;;1.65;0.68;;;19.30;99.90;;;;;;4974528;28;20488;-75
2022/07/07 07:58:38;;;;;;;0.63;0.43;;;19.40;99.90;;;;;;4974311;28;20109;-74
2022/07/07 08:01:04;;;;;;;1.52;0.70;;;19.30;99.90;;;;;;4954024;28;20507;-74
2022/07/07 08:03:29;;;;;;;2.55;1.08;;;19.40;99.90;;;;;;4955601;28;20031;-75
2022/07/07 08:05:55;;;;;;;4.75;0.80;;;19.60;99.90;;;;;;4949021;28;20039;-75
2022/07/07 09:07:54;;;;;;;1.23;0.50;;;21.20;96.10;;;;;;5907570;23;20014;-75
2022/07/07 09:10:30;;;;;;;0.55;0.40;;;21.50;95.30;;;;;;4948367;28;20035;-74
2022/07/07 09:12:56;;;;;;;0.95;0.45;;;21.20;90.90;;;;;;4941958;28;20587;-74
2022/07/07 09:15:22;;;;;;;1.10;0.40;;;21.40;93.40;;;;;;4953812;29;20023;-74
2022/07/07 09:17:48;;;;;;;2.33;0.50;;;21.60;90.20;;;;;;4953873;28;20090;-75
2022/07/07 09:20:14;;;;;;;0.68;0.50;;;21.60;87.80;;;;;;4954573;28;20439;-75
2022/07/07 09:22:53;;;;;;;2.17;0.70;;;21.50;91.80;;;;;;4953775;28;20107;-74
2022/07/07 09:25:23;;;;;;;1.17;0.45;;;21.60;89.70;;;;;;4953625;28;20031;-75
2022/07/07 09:27:58;;;;;;;0.30;0.30;;;21.50;90.80;;;;;;4953899;28;20023;-75
2022/07/07 09:30:33;;;;;;;1.70;0.93;;;21.30;92.90;;;;;;4953626;28;20023;-75
2022/07/07 09:33:02;;;;;;;0.63;0.30;;;21.30;87.00;;;;;;4941392;28;20027;-75
2022/07/07 09:38:16;;;;;;;0.80;0.50;;;21.00;95.00;;;;;;4952096;28;20400;-75
2022/07/07 09:40:53;;;;;;;1.48;0.70;;;21.20;92.20;;;;;;4953505;28;20024;-75
2022/07/07 09:43:21;;;;;;;0.50;0.47;;;21.20;91.80;;;;;;4952018;28;20388;-75
2022/07/07 09:46:06;;;;;;;0.75;0.52;;;21.30;91.60;;;;;;4953834;28;20165;-75
2022/07/07 09:48:33;;;;;;;1.95;0.73;;;21.20;93.80;;;;;;4942897;28;20027;-75
2022/07/07 09:51:13;;;;;;;1.70;0.73;;;21.20;94.40;;;;;;4953703;28;20023;-75
2022/07/07 09:53:59;;;;;;;1.27;0.73;;;21.40;93.80;;;;;;4952959;28;20023;-75
2022/07/07 09:56:32;;;;;;;1.88;0.80;;;21.80;93.40;;;;;;4953615;28;20020;-75
2022/07/07 09:58:59;;;;;;;1.40;0.57;;;21.90;87.10;;;;;;4951581;28;20035;-75
2022/07/07 10:01:28;;;;;;;1.25;0.30;;;22.00;91.30;;;;;;4953180;28;20027;-75
2022/07/07 10:03:58;;;;;;;1.65;0.93;;;22.10;81.60;;;;;;4952667;28;20043;-75
2022/07/07 10:06:26;;;;;;;1.55;0.70;;;22.00;89.60;;;;;;4953054;28;20023;-75
2022/07/07 11:08:35;;;;;;;1.88;0.60;;;22.80;75.40;;;;;;5797949;23;20055;-76
2022/07/07 11:11:01;;;;;;;0.85;0.68;;;22.50;75.00;;;;;;4964743;28;20101;-76
2022/07/07 11:13:35;;;;;;;0.93;0.70;;;22.70;79.60;;;;;;4971448;28;20094;-77
2022/07/07 11:16:21;;;;;;;3.90;1.00;;;22.80;80.80;;;;;;4973415;28;20104;-76
2022/07/07 11:18:50;;;;;;;1.50;0.80;;;22.70;76.10;;;;;;4975578;28;20522;-76
2022/07/07 11:21:17;;;;;;;1.40;0.80;;;23.00;90.70;;;;;;4975317;28;20077;-76
2022/07/07 11:23:56;;;;;;;1.30;0.77;;;23.20;75.60;;;;;;4975952;28;20030;-76
2022/07/07 11:26:24;;;;;;;0.82;0.50;;;23.70;71.90;;;;;;4975255;28;20019;-76
2022/07/07 11:28:56;;;;;;;1.85;0.60;;;23.90;73.40;;;;;;4974144;28;20062;-76
2022/07/07 11:31:23;;;;;;;2.17;0.60;;;24.10;70.00;;;;;;4974067;28;20019;-77
2022/07/07 11:33:54;;;;;;;0.60;0.60;;;24.00;73.20;;;;;;4975317;28;20026;-77
2022/07/07 11:36:25;;;;;;;2.63;0.73;;;24.10;71.10;;;;;;4974911;28;20014;-76
2022/07/07 11:39:06;;;;;;;0.77;0.70;;;24.20;71.60;;;;;;4967820;28;20051;-77
2022/07/07 11:41:45;;;;;;;2.03;0.50;;;24.30;69.10;;;;;;4973885;28;20672;-76
2022/07/07 11:44:21;;;;;;;1.02;0.50;;;24.10;67.50;;;;;;4975081;28;20034;-76
2022/07/07 11:46:51;;;;;;;2.88;0.70;;;23.50;68.00;;;;;;4973511;28;20387;-77
2022/07/07 11:49:21;;;;;;;1.48;0.50;;;23.60;74.50;;;;;;4975309;28;20031;-76
2022/07/07 11:51:48;;;;;;;3.10;0.60;;;23.50;71.10;;;;;;4974945;28;20098;-76
2022/07/07 11:54:14;;;;;;;0.55;0.40;;;23.00;74.10;;;;;;4974652;28;20031;-76
2022/07/07 11:56:40;;;;;;;0.85;0.52;;;22.80;74.90;;;;;;4974819;28;20084;-76
2022/07/07 11:59:11;;;;;;;0.65;0.57;;;22.70;78.40;;;;;;4975080;28;20111;-77
2022/07/07 12:01:40;;;;;;;2.28;0.63;;;22.70;77.90;;;;;;4974885;28;20023;-77
2022/07/07 12:04:22;;;;;;;2.30;0.60;;;22.60;79.50;;;;;;4974901;28;20030;-76
2022/07/07 12:06:50;;;;;;;0.60;0.60;;;22.50;77.40;;;;;;4974703;28;20027;-76
2022/07/07 13:08:51;;;;;;;1.73;0.70;;;23.80;66.60;;;;;;5627002;23;20408;-74
2022/07/07 13:11:18;;;;;;;2.03;0.65;;;24.10;66.50;;;;;;4972110;28;20030;-74
2022/07/07 13:13:44;;;;;;;1.65;0.50;;;24.60;67.60;;;;;;4973613;28;20026;-74
2022/07/07 13:16:10;;;;;;;1.00;0.50;;;25.50;72.10;;;;;;4971081;28;20106;-74
2022/07/07 13:18:37;;;;;;;0.77;0.50;;;26.00;61.70;;;;;;4969279;28;20109;-74
2022/07/07 13:21:04;;;;;;;1.85;0.45;;;26.30;66.10;;;;;;4973913;28;20022;-74
2022/07/07 13:23:32;;;;;;;1.40;0.55;;;26.30;58.20;;;;;;4972047;28;20045;-74
2022/07/07 13:25:59;;;;;;;0.40;0.40;;;25.60;58.10;;;;;;4973223;28;20027;-74
2022/07/07 13:28:26;;;;;;;0.60;0.60;;;27.40;59.60;;;;;;4973154;28;20027;-74
2022/07/07 13:30:52;;;;;;;0.70;0.40;;;28.40;59.00;;;;;;4973139;28;20019;-74
2022/07/07 13:33:18;;;;;;;0.45;0.40;;;28.60;51.90;;;;;;4973031;28;20484;-75
2022/07/07 13:35:45;;;;;;;0.73;0.40;;;28.30;53.30;;;;;;4973186;28;20038;-75
2022/07/07 13:38:10;;;;;;;1.27;0.25;;;28.00;53.20;;;;;;4967322;28;20035;-74
2022/07/07 13:40:38;;;;;;;2.00;0.30;;;27.80;51.40;;;;;;4970686;28;20031;-75
2022/07/07 13:43:05;;;;;;;1.02;0.30;;;28.40;53.60;;;;;;4972796;28;20096;-74
2022/07/07 13:45:31;;;;;;;1.08;0.25;;;29.30;51.30;;;;;;4973271;28;20026;-74
2022/07/07 13:47:57;;;;;;;0.22;0.20;;;32.00;50.20;;;;;;4971488;28;20498;-74
2022/07/07 13:50:23;;;;;;;0.22;0.13;;;34.70;44.90;;;;;;4972624;28;20023;-75
2022/07/07 13:52:50;;;;;;;1.77;0.40;;;36.00;39.00;;;;;;4972863;28;20026;-75
2022/07/07 13:55:16;;;;;;;0.43;0.40;;;35.70;40.10;;;;;;4972584;28;20023;-74
2022/07/07 13:57:41;;;;;;;0.85;0.47;;;35.20;38.50;;;;;;4972355;28;20557;-75
2022/07/07 14:00:08;;;;;;;0.40;0.35;;;34.60;41.60;;;;;;4972854;28;20022;-75
2022/07/07 14:02:34;;;;;;;0.73;0.40;;;34.00;40.10;;;;;;4972183;28;20158;-75
2022/07/07 14:04:59;;;;;;;1.65;0.50;;;34.10;40.70;;;;;;4972466;28;20102;-75
2022/07/07 14:07:25;;;;;;;2.40;0.38;;;33.80;40.00;;;;;;4972790;28;20026;-75
2022/07/07 15:09:24;;;;;;;1.67;0.40;;;38.60;33.30;;;;;;5389328;23;20084;-75
2022/07/07 15:11:50;;;;;;;0.43;0.40;;;36.80;34.00;;;;;;4965140;28;20019;-76
2022/07/07 15:14:17;;;;;;;1.33;0.60;;;34.70;36.40;;;;;;4951331;28;20031;-76
2022/07/07 15:16:43;;;;;;;0.50;0.43;;;32.70;37.00;;;;;;4944729;28;20169;-76
2022/07/07 15:19:09;;;;;;;1.00;0.40;;;30.90;41.10;;;;;;4942778;28;20038;-76
2022/07/07 15:21:35;;;;;;;1.45;0.55;;;29.40;43.40;;;;;;4941582;29;20649;-77
2022/07/07 15:24:01;;;;;;;1.05;0.30;;;29.10;45.40;;;;;;4945024;28;20035;-76
2022/07/07 15:26:26;;;;;;;0.40;0.40;;;28.90;44.00;;;;;;4944108;28;20625;-74
2022/07/07 15:28:52;;;;;;;0.55;0.52;;;28.10;46.20;;;;;;4943243;28;20082;-75
2022/07/07 15:31:20;;;;;;;1.63;0.60;;;27.50;48.40;;;;;;4944470;28;20032;-75
2022/07/07 15:33:45;;;;;;;1.45;0.63;;;28.50;48.20;;;;;;4945677;28;20034;-76
2022/07/07 15:36:12;;;;;;;4.00;0.82;;;29.80;47.30;;;;;;4944661;28;20031;-75
2022/07/07 15:38:38;;;;;;;1.20;0.55;;;31.40;42.20;;;;;;4938659;28;20070;-76
2022/07/07 15:41:13;;;;;;;1.75;0.68;;;32.80;42.10;;;;;;4944965;28;20027;-75
2022/07/07 15:43:43;;;;;;;0.73;0.50;;;34.40;38.50;;;;;;4932327;29;20029;-77
2022/07/07 15:46:14;;;;;;;0.60;0.40;;;34.70;36.00;;;;;;4951388;28;20023;-76
2022/07/07 15:48:43;;;;;;;2.05;0.60;;;34.60;38.40;;;;;;4950936;28;20023;-77
2022/07/07 15:51:13;;;;;;;0.77;0.43;;;35.00;37.80;;;;;;4950522;28;20023;-76
2022/07/07 15:53:39;;;;;;;3.40;0.60;;;34.60;39.10;;;;;;4937866;28;20054;-76
2022/07/07 15:56:05;;;;;;;0.47;0.47;;;34.90;38.70;;;;;;4951694;28;20099;-76
2022/07/07 15:58:31;;;;;;;0.80;0.43;;;34.20;38.50;;;;;;4951402;28;20039;-76
2022/07/07 16:00:57;;;;;;;1.98;0.47;;;33.70;39.30;;;;;;4951952;28;20075;-77
2022/07/07 16:03:23;;;;;;;0.85;0.43;;;33.40;38.40;;;;;;4952810;28;20480;-76
2022/07/07 16:05:48;;;;;;;1.13;0.40;;;32.30;38.70;;;;;;4953612;28;20019;-76
2022/07/07 17:10:23;;;;;;;0.98;0.70;;;25.30;51.80;;;;;;5003283;23;20389;-75
2022/07/07 17:12:49;;;;;;;1.55;0.70;;;25.10;55.90;;;;;;4958076;28;20476;-74
2022/07/07 17:15:15;;;;;;;2.42;1.10;;;24.90;54.70;;;;;;4972833;28;20037;-75
2022/07/07 17:17:41;;;;;;;1.20;0.80;;;24.80;55.40;;;;;;4972561;28;20456;-75
2022/07/07 17:20:07;;;;;;;0.60;0.60;;;24.70;57.30;;;;;;4950788;29;20023;-76
2022/07/07 17:22:33;;;;;;;1.67;0.68;;;24.70;55.30;;;;;;4952054;28;20433;-74
2022/07/07 17:24:59;;;;;;;0.45;0.45;;;24.90;55.70;;;;;;4953581;28;20480;-75
2022/07/07 17:27:25;;;;;;;0.93;0.60;;;25.00;55.00;;;;;;4944701;28;20486;-75
2022/07/07 17:29:50;;;;;;;2.28;0.90;;;24.90;54.20;;;;;;4946956;29;20094;-75
2022/07/07 17:32:16;;;;;;;1.08;0.65;;;24.80;56.00;;;;;;4952899;28;20028;-75
2022/07/07 17:34:42;;;;;;;0.80;0.65;;;24.60;55.30;;;;;;4953600;28;20381;-74
2022/07/07 17:37:08;;;;;;;5.55;1.10;;;24.40;57.00;;;;;;4953465;28;20023;-75
2022/07/07 17:39:34;;;;;;;1.17;0.77;;;24.30;56.40;;;;;;4948007;28;20118;-74
2022/07/07 17:41:59;;;;;;;1.33;0.60;;;24.00;56.90;;;;;;4928676;28;20103;-76
2022/07/07 17:44:26;;;;;;;1.80;0.70;;;24.00;57.00;;;;;;4935558;29;20388;-74
2022/07/07 17:46:52;;;;;;;1.52;0.70;;;23.90;57.70;;;;;;4935671;28;20024;-74
2022/07/07 17:49:17;;;;;;;1.17;0.70;;;24.00;59.00;;;;;;4933494;28;20031;-74
2022/07/07 17:51:43;;;;;;;0.65;0.57;;;24.10;56.40;;;;;;4951953;28;20595;-75
2022/07/07 17:54:09;;;;;;;1.48;0.65;;;24.10;58.50;;;;;;4932282;29;20046;-74
2022/07/07 17:56:35;;;;;;;0.95;0.90;;;24.10;58.40;;;;;;4930591;28;20124;-73
2022/07/07 17:59:01;;;;;;;1.20;0.73;;;23.90;59.70;;;;;;4934610;29;20122;-74
2022/07/07 18:01:27;;;;;;;2.45;1.10;;;23.90;63.60;;;;;;4930383;28;20031;-74
2022/07/07 18:03:53;;;;;;;3.20;1.23;;;23.60;65.80;;;;;;4936337;29;20059;-74
2022/07/07 18:06:19;;;;;;;2.75;0.98;;;23.50;66.90;;;;;;4931469;28;20034;-75
2022/07/07 19:08:18;;;;;;;4.82;0.93;;;20.50;99.90;;;;;;6022815;23;20120;-75
2022/07/07 19:10:44;;;;;;;2.72;0.90;;;20.50;99.90;;;;;;4955309;28;20038;-76
2022/07/07 19:13:09;;;;;;;2.75;1.00;;;20.40;99.90;;;;;;4960126;28;20027;-75
2022/07/07 19:15:35;;;;;;;1.25;0.85;;;20.30;99.90;;;;;;4953474;28;20034;-75
2022/07/07 19:18:01;;;;;;;1.27;0.95;;;20.10;99.90;;;;;;4953249;28;20108;-75
2022/07/07 19:20:28;;;;;;;1.08;0.88;;;19.90;99.90;;;;;;4946962;28;20023;-75
2022/07/07 19:22:54;;;;;;;7.30;1.20;;;19.80;99.90;;;;;;4950448;28;20436;-76
2022/07/07 19:25:21;;;;;;;2.95;1.20;;;19.60;99.90;;;;;;4950286;29;20032;-77
2022/07/07 19:27:47;;;;;;;1.73;1.00;;;19.50;99.90;;;;;;4943197;28;20110;-76
2022/07/07 19:30:13;;;;;;;3.15;1.20;;;19.30;99.90;;;;;;4934588;29;20023;-78
2022/07/07 19:32:40;;;;;;;1.58;1.10;;;19.20;99.90;;;;;;4946943;28;20031;-77
2022/07/07 19:35:07;;;;;;;3.85;1.15;;;19.00;99.90;;;;;;4942270;28;20098;-79
2022/07/07 19:37:33;;;;;;;2.42;1.30;;;18.90;99.90;;;;;;4950577;28;20501;-77
2022/07/07 19:39:59;;;;;;;1.63;1.17;;;18.70;99.90;;;;;;4951109;28;20420;-76
2022/07/07 19:42:25;;;;;;;1.35;1.25;;;18.60;99.90;;;;;;4955332;28;20019;-77
2022/07/07 19:44:50;;;;;;;1.17;1.00;;;18.50;99.90;;;;;;4952378;28;20110;-77
2022/07/07 19:47:18;;;;;;;1.83;0.98;;;18.40;99.90;;;;;;4955167;28;20098;-79
2022/07/07 19:49:50;;;;;;;2.58;1.60;;;18.20;99.90;;;;;;4948557;28;20034;-80
2022/07/07 19:52:17;;;;;;;2.80;1.08;;;18.10;99.90;;;;;;4946957;28;20079;-83
2022/07/07 19:54:43;;;;;;;2.53;1.17;;;18.00;99.90;;;;;;4936298;28;20036;-80
2022/07/07 19:57:09;;;;;;;2.65;1.42;;;17.80;99.90;;;;;;4938542;28;20023;-80
2022/07/07 19:59:35;;;;;;;2.58;1.25;;;17.80;99.90;;;;;;4940193;28;20539;-80
2022/07/07 20:02:06;;;;;;;2.63;1.77;;;17.70;99.90;;;;;;4939214;28;20059;-81
2022/07/07 20:04:43;;;;;;;1.30;1.20;;;17.60;99.90;;;;;;4942592;28;20028;-80
2022/07/07 20:07:15;;;;;;;1.27;1.17;;;17.50;99.90;;;;;;4934168;28;20024;-81
2022/07/07 20:09:41;;;;;;;1.65;1.55;;;17.40;99.90;;;;;;4946786;29;20167;-80
2022/07/07 20:12:13;;;;;;;2.30;1.13;;;17.30;99.90;;;;;;4945324;28;20570;-80
2022/07/07 20:14:44;;;;;;;3.80;1.25;;;17.30;99.90;;;;;;4941793;28;20023;-80
2022/07/07 20:17:22;;;;;;;1.55;1.00;;;17.10;99.90;;;;;;4945797;28;20027;-79
2022/07/07 20:19:49;;;;;;;3.13;1.15;;;17.00;99.90;;;;;;4949822;28;20058;-79
2022/07/07 20:22:15;;;;;;;1.58;1.23;;;16.90;99.90;;;;;;4951174;28;20035;-79
2022/07/07 20:24:41;;;;;;;2.53;1.10;;;16.70;99.90;;;;;;4951356;28;20031;-78
2022/07/07 20:27:06;;;;;;;2.47;1.02;;;16.60;99.90;;;;;;4950988;28;20031;-78
2022/07/07 20:29:32;;;;;;;3.33;1.40;;;16.60;99.90;;;;;;4951142;28;20059;-78
2022/07/07 20:31:58;;;;;;;1.83;1.63;;;16.50;99.90;;;;;;4949432;28;20065;-78
2022/07/07 20:34:24;;;;;;;3.10;1.40;;;16.40;99.90;;;;;;4945147;28;20484;-79
2022/07/07 20:36:50;;;;;;;1.52;1.13;;;16.40;99.90;;;;;;4943013;28;20038;-78
2022/07/07 20:39:15;;;;;;;2.40;1.38;;;16.20;99.90;;;;;;4946171;28;20027;-77
2022/07/07 20:41:42;;;;;;;3.38;1.33;;;16.00;99.90;;;;;;4951174;28;20026;-81
2022/07/07 20:44:07;;;;;;;1.50;1.40;;;15.90;99.90;;;;;;4950342;28;20023;-78
2022/07/07 20:46:33;;;;;;;2.05;1.25;;;15.80;99.90;;;;;;4943936;28;20078;-78
2022/07/07 20:48:59;;;;;;;3.00;1.23;;;15.70;99.90;;;;;;4937588;29;20035;-78
2022/07/07 20:51:24;;;;;;;2.55;1.70;;;15.70;99.90;;;;;;4941293;29;20027;-78
2022/07/07 20:53:50;;;;;;;2.03;1.33;;;15.60;99.90;;;;;;4941845;28;20123;-78
2022/07/07 20:56:16;;;;;;;3.15;1.63;;;15.50;99.90;;;;;;4943548;29;20067;-79
2022/07/07 20:58:42;;;;;;;1.90;1.65;;;15.40;99.90;;;;;;4939503;29;20047;-78
2022/07/07 21:01:11;;;;;;;2.22;1.27;;;15.30;99.90;;;;;;4939483;29;20027;-77
2022/07/07 21:03:40;;;;;;;2.67;1.52;;;15.20;99.90;;;;;;4940446;29;20051;-79
2022/07/07 21:06:09;;;;;;;2.90;1.73;;;15.10;99.90;;;;;;4937129;29;20034;-79
2022/07/07 21:08:35;;;;;;;3.67;1.80;;;15.00;99.90;;;;;;4932814;29;20051;-79
2022/07/07 21:11:02;;;;;;;4.63;1.67;;;15.00;99.90;;;;;;4937665;28;20095;-79
2022/07/07 21:13:28;;;;;;;3.97;1.80;;;14.90;99.90;;;;;;4941757;28;20027;-79
2022/07/07 21:15:54;;;;;;;1.63;1.52;;;14.90;99.90;;;;;;4939087;28;20024;-79
2022/07/07 21:18:21;;;;;;;2.13;1.60;;;14.80;99.90;;;;;;4939466;28;20044;-79
2022/07/07 21:20:47;;;;;;;5.47;2.00;;;14.70;99.90;;;;;;4940766;29;20029;-78
2022/07/07 21:23:13;;;;;;;2.83;1.90;;;14.70;99.90;;;;;;4940900;28;20039;-78
2022/07/07 21:25:39;;;;;;;4.28;2.13;;;14.60;99.90;;;;;;4940155;29;20023;-79
2022/07/07 21:28:05;;;;;;;4.10;1.90;;;14.50;99.90;;;;;;4940705;29;20031;-79
2022/07/07 21:30:31;;;;;;;2.05;1.73;;;14.50;99.90;;;;;;4947172;28;20480;-80
2022/07/07 21:32:57;;;;;;;4.30;2.22;;;14.40;99.90;;;;;;4948977;28;20943;-79
2022/07/07 21:35:23;;;;;;;2.65;2.13;;;14.40;99.90;;;;;;4938794;28;20042;-79
2022/07/07 21:37:50;;;;;;;2.78;1.83;;;14.30;99.90;;;;;;4936537;28;20067;-79
2022/07/07 21:40:15;;;;;;;2.58;1.60;;;14.30;99.90;;;;;;4935579;28;20416;-80
2022/07/07 21:42:41;;;;;;;2.95;1.65;;;14.30;99.90;;;;;;4941956;29;20019;-79
2022/07/07 21:45:08;;;;;;;4.00;2.10;;;14.20;99.90;;;;;;4939911;28;20586;-79
2022/07/07 21:47:34;;;;;;;4.43;1.92;;;14.00;99.90;;;;;;4941616;28;20024;-79
2022/07/07 21:50:00;;;;;;;4.38;2.03;;;13.90;99.90;;;;;;4932679;28;20040;-80
2022/07/07 21:52:26;;;;;;;2.92;1.70;;;13.90;99.90;;;;;;4929542;29;20031;-80
2022/07/07 21:54:52;;;;;;;2.40;2.03;;;13.80;99.90;;;;;;4926935;29;20538;-79
2022/07/07 21:57:19;;;;;;;3.35;2.40;;;13.80;99.90;;;;;;4928402;29;20094;-78
2022/07/07 21:59:45;;;;;;;2.10;1.90;;;13.70;99.90;;;;;;4923239;29;20108;-79
2022/07/07 22:02:11;;;;;;;3.92;2.05;;;13.60;99.90;;;;;;4925833;29;20024;-79
2022/07/07 22:07:21;;;;;;;6.45;2.33;;;13.50;99.90;;;;;;4928242;28;20023;-78
2022/07/07 23:09:20;;;;;;;3.33;3.03;;;12.30;99.90;;;;;;5580727;23;20051;-73
2022/07/07 23:11:46;;;;;;;4.60;3.30;;;12.30;99.90;;;;;;4970999;28;20047;-73
2022/07/07 23:14:12;;;;;;;3.50;3.00;;;12.30;99.90;;;;;;4971461;28;20443;-75
2022/07/07 23:16:37;;;;;;;4.15;2.88;;;12.30;99.90;;;;;;4971828;28;20027;-75
2022/07/07 23:19:03;;;;;;;4.22;3.08;;;12.20;99.90;;;;;;4971111;28;20400;-75
2022/07/07 23:21:29;;;;;;;3.53;3.22;;;12.20;99.90;;;;;;4971443;28;20038;-76
2022/07/07 23:23:55;;;;;;;6.18;3.08;;;12.10;99.90;;;;;;4971479;28;20489;-76
2022/07/07 23:26:20;;;;;;;4.05;3.33;;;12.10;99.90;;;;;;4971145;28;20153;-75
2022/07/07 23:28:46;;;;;;;3.97;2.95;;;12.00;99.90;;;;;;4971009;28;20039;-76